createdAt,value
2022-09-06T00:08:44.667Z,3.60
2022-09-06T00:18:49.087Z,3.70
2022-09-06T00:28:52.194Z,3.45
2022-09-06T00:38:56.712Z,3.60
2022-09-06T00:49:08.164Z,3.60
2022-09-06T00:59:12.736Z,3.40
2022-09-06T01:09:27.616Z,3.72
2022-09-06T01:20:02.418Z,3.78
2022-09-06T01:30:09.424Z,3.60
2022-09-06T01:40:12.540Z,3.95
2022-09-06T01:50:46.039Z,3.88
2022-09-06T02:00:56.248Z,3.80
2022-09-06T02:11:03.384Z,4.10
2022-09-06T02:21:07.628Z,3.88
2022-09-06T02:31:17.380Z,3.67
2022-09-06T02:41:24.125Z,4.03
2022-09-06T02:51:28.628Z,3.60
2022-09-06T03:01:31.801Z,3.58
2022-09-06T03:11:36.240Z,3.85
2022-09-06T03:21:39.340Z,3.92
2022-09-06T03:31:43.781Z,3.80
2022-09-06T03:41:46.926Z,3.80
2022-09-06T03:51:51.351Z,4.20
2022-09-06T04:01:54.442Z,4.15
2022-09-06T04:11:59.029Z,3.80
2022-09-06T04:22:02.336Z,4.30
2022-09-06T04:32:07.307Z,4.30
2022-09-06T04:42:10.435Z,3.95
2022-09-06T04:52:14.879Z,3.67
2022-09-06T05:02:18.031Z,3.90
2022-09-06T05:12:22.592Z,4.35
2022-09-06T05:22:25.714Z,4.30
2022-09-06T05:32:30.204Z,3.88
2022-09-06T05:42:33.298Z,4.22
2022-09-06T05:52:38.194Z,4.15
2022-09-06T06:02:41.304Z,4.05
2022-09-06T06:12:45.792Z,4.50
2022-09-06T06:22:48.881Z,4.07
2022-09-06T06:32:53.298Z,3.95
2022-09-06T06:42:57.297Z,3.97
2022-09-06T06:53:01.713Z,3.75
2022-09-06T07:03:04.845Z,4.18
2022-09-06T07:13:09.246Z,4.15
2022-09-06T07:33:37.889Z,3.97
2022-09-06T07:43:41.040Z,3.65
2022-09-06T07:53:50.543Z,3.63
2022-09-06T08:03:53.633Z,3.65
2022-09-06T08:14:00.106Z,3.95
2022-09-06T08:24:05.253Z,3.63
2022-09-06T08:34:12.963Z,3.60
2022-09-06T08:54:49.659Z,3.10
2022-09-06T09:04:56.194Z,3.63
2022-09-06T09:15:06.537Z,3.22
2022-09-06T09:25:14.484Z,3.20
2022-09-06T09:35:28.005Z,4.13
2022-09-06T09:45:32.256Z,3.75
2022-09-06T09:55:36.808Z,3.30
2022-09-06T10:05:41.635Z,3.72
2022-09-06T10:15:46.134Z,4.30
2022-09-06T10:25:54.922Z,3.55
2022-09-06T10:36:03.276Z,3.05
2022-09-06T10:46:12.931Z,2.97
2022-09-06T10:56:23.555Z,5.97
2022-09-06T11:06:32.218Z,4.97
2022-09-06T11:16:43.845Z,3.13
2022-09-06T11:27:00.878Z,2.10
2022-09-06T11:37:07.576Z,2.08
2022-09-06T11:47:11.400Z,1.67
2022-09-06T11:57:22.263Z,1.10
2022-09-06T12:07:25.445Z,0.90
2022-09-06T12:17:47.864Z,0.90
2022-09-06T12:27:56.563Z,1.23
2022-09-06T12:38:02.728Z,1.70
2022-09-06T12:48:09.617Z,1.10
2022-09-06T12:58:15.650Z,1.27
2022-09-06T13:08:25.948Z,1.08
2022-09-06T13:18:35.721Z,1.00
2022-09-06T13:28:39.228Z,1.10
2022-09-06T13:38:45.015Z,1.23
2022-09-06T13:48:48.059Z,1.70
2022-09-06T13:58:52.460Z,1.70
2022-09-06T14:09:06.751Z,1.40
2022-09-06T14:19:12.136Z,1.30
2022-09-06T14:29:15.190Z,1.17
2022-09-06T14:39:19.665Z,1.00
2022-09-06T14:49:22.768Z,1.35
2022-09-06T14:59:27.247Z,0.88
2022-09-06T15:09:30.343Z,0.85
2022-09-06T15:19:36.245Z,1.30
2022-09-06T15:29:39.445Z,1.30
2022-09-06T15:39:43.876Z,1.60
2022-09-06T15:49:46.946Z,1.88
2022-09-06T15:59:51.399Z,2.05
2022-09-06T16:09:54.514Z,2.40
2022-09-06T16:19:59.532Z,2.00
2022-09-06T16:30:02.580Z,2.03
2022-09-06T16:40:09.411Z,2.17
2022-09-06T16:50:12.529Z,1.90
2022-09-06T17:00:17.536Z,2.10
2022-09-06T17:10:20.585Z,1.98
2022-09-06T17:20:25.048Z,1.90
2022-09-06T17:30:29.756Z,1.77
2022-09-06T17:40:34.207Z,1.70
2022-09-06T17:50:37.874Z,1.90
2022-09-06T18:00:42.720Z,1.80
2022-09-06T18:10:45.808Z,2.25
2022-09-06T18:20:51.275Z,2.03
2022-09-06T18:30:54.374Z,2.53
2022-09-06T18:41:00.740Z,2.60
2022-09-06T18:51:05.852Z,2.22
2022-09-06T19:01:12.661Z,2.30
2022-09-06T19:11:17.981Z,2.40
2022-09-06T19:21:24.775Z,1.80
2022-09-06T19:31:30.814Z,1.70
2022-09-06T19:41:39.079Z,2.40
2022-09-06T19:51:43.893Z,3.03
2022-09-06T20:01:48.487Z,3.22
2022-09-06T20:11:51.623Z,3.25
2022-09-06T20:21:56.292Z,3.17
2022-09-06T20:31:59.413Z,2.47
2022-09-06T20:42:03.956Z,2.70
2022-09-06T20:52:07.070Z,2.70
2022-09-06T21:02:11.603Z,3.15
2022-09-06T21:12:14.741Z,2.63
2022-09-06T21:22:19.156Z,2.53
2022-09-06T21:32:22.192Z,2.60
2022-09-06T21:42:28.779Z,2.80
2022-09-06T21:52:32.440Z,2.70
2022-09-06T22:02:37.078Z,2.70
2022-09-06T22:12:42.152Z,2.78
2022-09-06T22:22:46.605Z,2.90
2022-09-06T22:32:49.719Z,2.85
2022-09-06T22:42:54.494Z,2.72
2022-09-06T22:52:57.672Z,2.83
2022-09-06T23:03:02.072Z,2.65
2022-09-06T23:13:05.190Z,2.90
2022-09-06T23:23:09.744Z,3.05
2022-09-06T23:33:12.774Z,3.22
2022-09-06T23:43:17.187Z,3.25
2022-09-06T23:53:20.491Z,3.28
